sensor_id;sensor_type;location;lat;lon;timestamp;pressure;altitude;pressure_sealevel;temperature;humidity
64521;BME280;50896;46.714;17.322;2022-11-20T00:01:24;100028.53;;;3.79;100.00
64521;BME280;50896;46.714;17.322;2022-11-20T00:03:53;100030.19;;;3.80;100.00
64521;BME280;50896;46.714;17.322;2022-11-20T00:06:21;100028.78;;;3.75;100.00
64521;BME280;50896;46.714;17.322;2022-11-20T00:08:48;100035.69;;;3.76;100.00
64521;BME280;50896;46.714;17.322;2022-11-20T00:11:19;100030.06;;;3.81;100.00
64521;BME280;50896;46.714;17.322;2022-11-20T00:13:48;100031.28;;;3.77;100.00
64521;BME280;50896;46.714;17.322;2022-11-20T00:16:18;100033.31;;;3.73;100.00
64521;BME280;50896;46.714;17.322;2022-11-20T00:18:46;100046.94;;;3.79;100.00
64521;BME280;50896;46.714;17.322;2022-11-20T00:21:18;100051.72;;;3.73;100.00
64521;BME280;50896;46.714;17.322;2022-11-20T00:23:48;100056.28;;;3.71;100.00
64521;BME280;50896;46.714;17.322;2022-11-20T00:26:18;100055.56;;;3.69;100.00
64521;BME280;50896;46.714;17.322;2022-11-20T00:28:50;100059.59;;;3.73;100.00
64521;BME280;50896;46.714;17.322;2022-11-20T00:31:18;100062.09;;;3.75;100.00
64521;BME280;50896;46.714;17.322;2022-11-20T00:33:45;100067.09;;;3.78;100.00
64521;BME280;50896;46.714;17.322;2022-11-20T00:36:15;100057.72;;;3.75;100.00
64521;BME280;50896;46.714;17.322;2022-11-20T00:38:42;100064.31;;;3.70;100.00
64521;BME280;50896;46.714;17.322;2022-11-20T00:41:11;100065.69;;;3.74;100.00
64521;BME280;50896;46.714;17.322;2022-11-20T00:43:38;100074.09;;;3.68;100.00
64521;BME280;50896;46.714;17.322;2022-11-20T00:46:16;100083.00;;;3.76;100.00
64521;BME280;50896;46.714;17.322;2022-11-20T00:48:44;100078.34;;;3.80;100.00
64521;BME280;50896;46.714;17.322;2022-11-20T00:51:13;100085.97;;;3.83;100.00
64521;BME280;50896;46.714;17.322;2022-11-20T00:53:40;100093.03;;;3.83;100.00
64521;BME280;50896;46.714;17.322;2022-11-20T00:56:11;100094.59;;;3.85;100.00
64521;BME280;50896;46.714;17.322;2022-11-20T00:58:40;100097.59;;;3.81;100.00
64521;BME280;50896;46.714;17.322;2022-11-20T01:01:41;100104.00;;;3.88;100.00
64521;BME280;50896;46.714;17.322;2022-11-20T01:04:01;100106.31;;;3.81;100.00
64521;BME280;50896;46.714;17.322;2022-11-20T01:06:34;100110.41;;;3.74;100.00
64521;BME280;50896;46.714;17.322;2022-11-20T01:09:07;100113.13;;;3.84;100.00
64521;BME280;50896;46.714;17.322;2022-11-20T01:11:36;100109.97;;;3.69;100.00
64521;BME280;50896;46.714;17.322;2022-11-20T01:14:07;100127.06;;;3.63;100.00
64521;BME280;50896;46.714;17.322;2022-11-20T01:16:39;100134.44;;;3.69;100.00
64521;BME280;50896;46.714;17.322;2022-11-20T01:19:09;100133.97;;;3.75;100.00
64521;BME280;50896;46.714;17.322;2022-11-20T01:21:43;100134.06;;;3.74;100.00
64521;BME280;50896;46.714;17.322;2022-11-20T01:24:12;100130.69;;;3.83;100.00
64521;BME280;50896;46.714;17.322;2022-11-20T01:26:41;100117.16;;;3.88;100.00
64521;BME280;50896;46.714;17.322;2022-11-20T01:29:24;100110.94;;;3.89;100.00
64521;BME280;50896;46.714;17.322;2022-11-20T01:31:51;100113.56;;;3.89;100.00
64521;BME280;50896;46.714;17.322;2022-11-20T01:34:20;100118.13;;;3.87;100.00
64521;BME280;50896;46.714;17.322;2022-11-20T01:36:49;100129.06;;;3.71;100.00
64521;BME280;50896;46.714;17.322;2022-11-20T01:39:22;100133.44;;;3.82;100.00
64521;BME280;50896;46.714;17.322;2022-11-20T01:41:51;100121.97;;;3.83;100.00
64521;BME280;50896;46.714;17.322;2022-11-20T01:45:00;100106.06;;;3.84;100.00
64521;BME280;50896;46.714;17.322;2022-11-20T01:47:44;100100.00;;;3.72;100.00
64521;BME280;50896;46.714;17.322;2022-11-20T01:50:23;100102.41;;;3.75;100.00
64521;BME280;50896;46.714;17.322;2022-11-20T01:52:56;100100.72;;;3.74;100.00
64521;BME280;50896;46.714;17.322;2022-11-20T01:55:31;100107.31;;;3.69;100.00
64521;BME280;50896;46.714;17.322;2022-11-20T01:57:59;100112.31;;;3.72;100.00
64521;BME280;50896;46.714;17.322;2022-11-20T02:00:26;100102.19;;;3.67;100.00
64521;BME280;50896;46.714;17.322;2022-11-20T02:02:56;100103.41;;;3.63;100.00
64521;BME280;50896;46.714;17.322;2022-11-20T02:05:36;100103.41;;;3.63;100.00
64521;BME280;50896;46.714;17.322;2022-11-20T02:08:06;100098.28;;;3.62;100.00
64521;BME280;50896;46.714;17.322;2022-11-20T02:10:33;100105.19;;;3.63;100.00
64521;BME280;50896;46.714;17.322;2022-11-20T02:13:00;100107.13;;;3.61;100.00
64521;BME280;50896;46.714;17.322;2022-11-20T02:15:46;100110.00;;;3.57;100.00
64521;BME280;50896;46.714;17.322;2022-11-20T02:18:16;100104.63;;;3.59;100.00
64521;BME280;50896;46.714;17.322;2022-11-20T02:20:44;100113.72;;;3.55;100.00
64521;BME280;50896;46.714;17.322;2022-11-20T02:23:37;100117.88;;;3.57;100.00
64521;BME280;50896;46.714;17.322;2022-11-20T02:26:08;100121.47;;;3.56;100.00
64521;BME280;50896;46.714;17.322;2022-11-20T02:28:37;100111.06;;;3.55;100.00
64521;BME280;50896;46.714;17.322;2022-11-20T02:31:04;100096.72;;;3.59;100.00
64521;BME280;50896;46.714;17.322;2022-11-20T02:33:30;100103.03;;;3.68;100.00
64521;BME280;50896;46.714;17.322;2022-11-20T02:35:57;100096.97;;;3.56;100.00
64521;BME280;50896;46.714;17.322;2022-11-20T02:38:24;100096.00;;;3.57;100.00
64521;BME280;50896;46.714;17.322;2022-11-20T02:40:50;100097.34;;;3.51;100.00
64521;BME280;50896;46.714;17.322;2022-11-20T02:43:20;100092.06;;;3.51;100.00
64521;BME280;50896;46.714;17.322;2022-11-20T02:45:47;100092.22;;;3.50;100.00
64521;BME280;50896;46.714;17.322;2022-11-20T02:48:14;100088.63;;;3.51;100.00
64521;BME280;50896;46.714;17.322;2022-11-20T02:50:40;100085.19;;;3.50;100.00
64521;BME280;50896;46.714;17.322;2022-11-20T02:53:07;100085.03;;;3.52;100.00
64521;BME280;50896;46.714;17.322;2022-11-20T02:55:35;100086.00;;;3.51;100.00
64521;BME280;50896;46.714;17.322;2022-11-20T02:58:02;100081.94;;;3.47;100.00
64521;BME280;50896;46.714;17.322;2022-11-20T03:00:29;100081.00;;;3.48;100.00
64521;BME280;50896;46.714;17.322;2022-11-20T03:02:56;100065.72;;;3.41;100.00
64521;BME280;50896;46.714;17.322;2022-11-20T03:05:23;100063.06;;;3.41;100.00
64521;BME280;50896;46.714;17.322;2022-11-20T03:07:49;100051.28;;;3.36;100.00
64521;BME280;50896;46.714;17.322;2022-11-20T03:10:16;100057.38;;;3.36;100.00
64521;BME280;50896;46.714;17.322;2022-11-20T03:12:43;100061.31;;;3.42;100.00
64521;BME280;50896;46.714;17.322;2022-11-20T03:15:09;100058.06;;;3.38;100.00
64521;BME280;50896;46.714;17.322;2022-11-20T03:17:37;100067.50;;;3.41;100.00
64521;BME280;50896;46.714;17.322;2022-11-20T03:20:04;100062.03;;;3.33;100.00
64521;BME280;50896;46.714;17.322;2022-11-20T03:22:30;100074.84;;;3.26;100.00
64521;BME280;50896;46.714;17.322;2022-11-20T03:24:57;100070.53;;;3.25;100.00
64521;BME280;50896;46.714;17.322;2022-11-20T03:27:24;100078.91;;;3.19;100.00
64521;BME280;50896;46.714;17.322;2022-11-20T03:29:51;100078.66;;;3.22;100.00
64521;BME280;50896;46.714;17.322;2022-11-20T03:32:17;100077.09;;;3.19;100.00
64521;BME280;50896;46.714;17.322;2022-11-20T03:34:44;100079.59;;;3.21;100.00
64521;BME280;50896;46.714;17.322;2022-11-20T03:37:11;100089.16;;;3.22;100.00
64521;BME280;50896;46.714;17.322;2022-11-20T03:39:37;100093.59;;;3.21;100.00
64521;BME280;50896;46.714;17.322;2022-11-20T03:42:04;100090.03;;;3.22;100.00
64521;BME280;50896;46.714;17.322;2022-11-20T03:44:51;100091.66;;;3.23;100.00
64521;BME280;50896;46.714;17.322;2022-11-20T03:47:18;100089.78;;;3.25;100.00
64521;BME280;50896;46.714;17.322;2022-11-20T03:49:44;100085.00;;;3.19;100.00
64521;BME280;50896;46.714;17.322;2022-11-20T03:52:11;100090.38;;;3.18;100.00
64521;BME280;50896;46.714;17.322;2022-11-20T03:54:37;100076.97;;;3.21;100.00
64521;BME280;50896;46.714;17.322;2022-11-20T03:57:04;100074.13;;;3.24;100.00
64521;BME280;50896;46.714;17.322;2022-11-20T03:59:31;100066.97;;;3.15;100.00
64521;BME280;50896;46.714;17.322;2022-11-20T04:01:58;100065.09;;;3.17;100.00
64521;BME280;50896;46.714;17.322;2022-11-20T04:04:24;100069.94;;;3.21;100.00
64521;BME280;50896;46.714;17.322;2022-11-20T04:06:51;100065.03;;;3.28;100.00
64521;BME280;50896;46.714;17.322;2022-11-20T04:09:18;100069.69;;;3.24;100.00
64521;BME280;50896;46.714;17.322;2022-11-20T04:11:45;100068.66;;;3.16;100.00
64521;BME280;50896;46.714;17.322;2022-11-20T04:14:15;100062.91;;;3.22;100.00
64521;BME280;50896;46.714;17.322;2022-11-20T04:16:43;100057.91;;;3.19;100.00
64521;BME280;50896;46.714;17.322;2022-11-20T04:19:12;100051.47;;;3.12;100.00
64521;BME280;50896;46.714;17.322;2022-11-20T04:21:38;100068.19;;;3.11;100.00
64521;BME280;50896;46.714;17.322;2022-11-20T04:24:06;100075.13;;;3.12;100.00
64521;BME280;50896;46.714;17.322;2022-11-20T04:26:34;100076.06;;;3.11;100.00
64521;BME280;50896;46.714;17.322;2022-11-20T04:29:00;100081.66;;;3.17;100.00
64521;BME280;50896;46.714;17.322;2022-11-20T04:31:32;100075.00;;;3.13;100.00
64521;BME280;50896;46.714;17.322;2022-11-20T04:34:05;100068.06;;;3.12;100.00
64521;BME280;50896;46.714;17.322;2022-11-20T04:36:33;100068.66;;;3.16;100.00
64521;BME280;50896;46.714;17.322;2022-11-20T04:39:03;100070.34;;;3.17;100.00
64521;BME280;50896;46.714;17.322;2022-11-20T04:41:32;100065.09;;;3.17;100.00
64521;BME280;50896;46.714;17.322;2022-11-20T04:44:01;100065.81;;;3.07;100.00
64521;BME280;50896;46.714;17.322;2022-11-20T04:46:36;100065.56;;;3.11;100.00
64521;BME280;50896;46.714;17.322;2022-11-20T04:49:04;100058.50;;;3.11;100.00
64521;BME280;50896;46.714;17.322;2022-11-20T04:51:31;100056.84;;;3.10;100.00
64521;BME280;50896;46.714;17.322;2022-11-20T04:53:58;100059.72;;;3.07;100.00
64521;BME280;50896;46.714;17.322;2022-11-20T04:56:25;100052.44;;;2.99;100.00
64521;BME280;50896;46.714;17.322;2022-11-20T04:58:52;100053.75;;;3.05;100.00
64521;BME280;50896;46.714;17.322;2022-11-20T05:01:21;100054.34;;;2.97;100.00
64521;BME280;50896;46.714;17.322;2022-11-20T05:03:49;100052.53;;;3.09;100.00
64521;BME280;50896;46.714;17.322;2022-11-20T05:06:17;100054.94;;;3.01;100.00
64521;BME280;50896;46.714;17.322;2022-11-20T05:08:44;100062.69;;;3.02;100.00
64521;BME280;50896;46.714;17.322;2022-11-20T05:11:13;100064.38;;;3.03;100.00
64521;BME280;50896;46.714;17.322;2022-11-20T05:13:41;100066.53;;;2.98;100.00
64521;BME280;50896;46.714;17.322;2022-11-20T05:16:13;100075.72;;;3.04;100.00
64521;BME280;50896;46.714;17.322;2022-11-20T05:18:41;100074.41;;;2.98;100.00
64521;BME280;50896;46.714;17.322;2022-11-20T05:21:09;100072.38;;;3.02;100.00
64521;BME280;50896;46.714;17.322;2022-11-20T05:23:37;100067.72;;;2.94;100.00
64521;BME280;50896;46.714;17.322;2022-11-20T05:26:05;100072.16;;;2.94;100.00
64521;BME280;50896;46.714;17.322;2022-11-20T05:28:33;100066.78;;;2.95;100.00
64521;BME280;50896;46.714;17.322;2022-11-20T05:31:08;100073.94;;;2.93;100.00
64521;BME280;50896;46.714;17.322;2022-11-20T05:33:36;100083.47;;;2.94;100.00
64521;BME280;50896;46.714;17.322;2022-11-20T05:36:03;100089.09;;;2.89;100.00
64521;BME280;50896;46.714;17.322;2022-11-20T05:38:30;100082.19;;;2.88;100.00
64521;BME280;50896;46.714;17.322;2022-11-20T05:43:32;100081.34;;;2.88;100.00
64521;BME280;50896;46.714;17.322;2022-11-20T05:46:00;100085.16;;;2.95;100.00
64521;BME280;50896;46.714;17.322;2022-11-20T05:48:27;100091.72;;;2.89;100.00
64521;BME280;50896;46.714;17.322;2022-11-20T05:50:56;100089.94;;;2.90;100.00
64521;BME280;50896;46.714;17.322;2022-11-20T05:53:24;100091.84;;;2.88;100.00
64521;BME280;50896;46.714;17.322;2022-11-20T05:56:13;100102.00;;;2.81;100.00
64521;BME280;50896;46.714;17.322;2022-11-20T05:58:41;100103.56;;;2.84;100.00
64521;BME280;50896;46.714;17.322;2022-11-20T06:01:11;100104.84;;;2.89;100.00
64521;BME280;50896;46.714;17.322;2022-11-20T06:03:39;100107.38;;;2.80;100.00
64521;BME280;50896;46.714;17.322;2022-11-20T06:06:06;100123.00;;;2.81;100.00
64521;BME280;50896;46.714;17.322;2022-11-20T06:08:33;100114.06;;;2.84;100.00
64521;BME280;50896;46.714;17.322;2022-11-20T06:11:07;100119.53;;;2.92;100.00
64521;BME280;50896;46.714;17.322;2022-11-20T06:13:34;100116.19;;;2.90;100.00
64521;BME280;50896;46.714;17.322;2022-11-20T06:16:07;100124.19;;;2.88;100.00
64521;BME280;50896;46.714;17.322;2022-11-20T06:18:34;100119.78;;;2.89;100.00
64521;BME280;50896;46.714;17.322;2022-11-20T06:21:12;100120.47;;;3.02;100.00
64521;BME280;50896;46.714;17.322;2022-11-20T06:23:39;100121.44;;;3.01;100.00
64521;BME280;50896;46.714;17.322;2022-11-20T06:26:12;100120.13;;;3.07;100.00
64521;BME280;50896;46.714;17.322;2022-11-20T06:28:39;100119.66;;;3.13;100.00
64521;BME280;50896;46.714;17.322;2022-11-20T06:31:07;100121.31;;;3.14;100.00
64521;BME280;50896;46.714;17.322;2022-11-20T06:33:34;100125.81;;;3.23;100.00
64521;BME280;50896;46.714;17.322;2022-11-20T06:36:01;100123.81;;;3.27;100.00
64521;BME280;50896;46.714;17.322;2022-11-20T06:38:35;100122.59;;;3.31;100.00
64521;BME280;50896;46.714;17.322;2022-11-20T06:41:04;100124.38;;;3.31;100.00
64521;BME280;50896;46.714;17.322;2022-11-20T06:43:31;100132.25;;;3.31;100.00
64521;BME280;50896;46.714;17.322;2022-11-20T06:45:58;100135.63;;;3.21;100.00
64521;BME280;50896;46.714;17.322;2022-11-20T06:48:28;100143.28;;;3.24;100.00
64521;BME280;50896;46.714;17.322;2022-11-20T06:50:56;100136.69;;;3.30;100.00
64521;BME280;50896;46.714;17.322;2022-11-20T06:53:24;100144.09;;;3.36;100.00
64521;BME280;50896;46.714;17.322;2022-11-20T06:55:52;100143.25;;;3.36;100.00
64521;BME280;50896;46.714;17.322;2022-11-20T06:58:22;100141.00;;;3.31;100.00
64521;BME280;50896;46.714;17.322;2022-11-20T07:00:48;100154.59;;;3.25;100.00
64521;BME280;50896;46.714;17.322;2022-11-20T07:03:15;100150.31;;;3.24;100.00
64521;BME280;50896;46.714;17.322;2022-11-20T07:05:42;100143.97;;;3.15;100.00
64521;BME280;50896;46.714;17.322;2022-11-20T07:08:12;100150.22;;;3.14;100.00
64521;BME280;50896;46.714;17.322;2022-11-20T07:10:39;100153.19;;;3.10;100.00
64521;BME280;50896;46.714;17.322;2022-11-20T07:13:06;100147.34;;;3.17;100.00
64521;BME280;50896;46.714;17.322;2022-11-20T07:15:33;100142.69;;;3.10;100.00
64521;BME280;50896;46.714;17.322;2022-11-20T07:18:00;100147.00;;;2.99;100.00
64521;BME280;50896;46.714;17.322;2022-11-20T07:20:27;100155.25;;;2.95;100.00
64521;BME280;50896;46.714;17.322;2022-11-20T07:22:55;100159.88;;;2.91;100.00
64521;BME280;50896;46.714;17.322;2022-11-20T07:25:23;100160.72;;;2.91;100.00
64521;BME280;50896;46.714;17.322;2022-11-20T07:27:50;100160.63;;;2.93;100.00
64521;BME280;50896;46.714;17.322;2022-11-20T07:30:16;100164.66;;;2.97;100.00
64521;BME280;50896;46.714;17.322;2022-11-20T07:32:47;100163.44;;;3.01;100.00
64521;BME280;50896;46.714;17.322;2022-11-20T07:35:17;100159.75;;;3.04;100.00
64521;BME280;50896;46.714;17.322;2022-11-20T07:37:43;100148.91;;;3.08;100.00
64521;BME280;50896;46.714;17.322;2022-11-20T07:40:12;100154.88;;;3.11;100.00
64521;BME280;50896;46.714;17.322;2022-11-20T07:42:47;100155.00;;;3.09;100.00
64521;BME280;50896;46.714;17.322;2022-11-20T07:45:23;100155.47;;;3.03;100.00
64521;BME280;50896;46.714;17.322;2022-11-20T07:47:50;100139.59;;;3.04;100.00
64521;BME280;50896;46.714;17.322;2022-11-20T07:50:18;100139.84;;;3.13;100.00
64521;BME280;50896;46.714;17.322;2022-11-20T07:52:45;100139.72;;;3.14;100.00
64521;BME280;50896;46.714;17.322;2022-11-20T07:55:12;100133.16;;;3.08;100.00
64521;BME280;50896;46.714;17.322;2022-11-20T07:57:39;100136.59;;;3.09;100.00
64521;BME280;50896;46.714;17.322;2022-11-20T08:00:08;100132.41;;;3.06;100.00
64521;BME280;50896;46.714;17.322;2022-11-20T08:02:42;100131.59;;;3.06;100.00
64521;BME280;50896;46.714;17.322;2022-11-20T08:05:09;100133.72;;;3.12;100.00
64521;BME280;50896;46.714;17.322;2022-11-20T08:07:39;100129.91;;;3.16;100.00
64521;BME280;50896;46.714;17.322;2022-11-20T08:10:09;100139.94;;;3.22;100.00
64521;BME280;50896;46.714;17.322;2022-11-20T08:12:44;100143.88;;;3.28;100.00
64521;BME280;50896;46.714;17.322;2022-11-20T08:15:30;100156.63;;;3.33;100.00
64521;BME280;50896;46.714;17.322;2022-11-20T08:18:02;100159.88;;;3.36;100.00
64521;BME280;50896;46.714;17.322;2022-11-20T08:20:49;100162.50;;;3.36;100.00
64521;BME280;50896;46.714;17.322;2022-11-20T08:23:16;100172.03;;;3.37;100.00
64521;BME280;50896;46.714;17.322;2022-11-20T08:25:43;100173.34;;;3.43;100.00
64521;BME280;50896;46.714;17.322;2022-11-20T08:28:10;100181.09;;;3.45;100.00
64521;BME280;50896;46.714;17.322;2022-11-20T08:30:46;100180.75;;;3.49;100.00
64521;BME280;50896;46.714;17.322;2022-11-20T08:33:13;100179.16;;;3.58;100.00
64521;BME280;50896;46.714;17.322;2022-11-20T08:35:40;100180.25;;;3.55;100.00
64521;BME280;50896;46.714;17.322;2022-11-20T08:38:08;100181.19;;;3.54;100.00
64521;BME280;50896;46.714;17.322;2022-11-20T08:40:35;100179.41;;;3.55;100.00
64521;BME280;50896;46.714;17.322;2022-11-20T08:43:02;100179.41;;;3.55;100.00
64521;BME280;50896;46.714;17.322;2022-11-20T08:45:28;100184.44;;;3.58;100.00
64521;BME280;50896;46.714;17.322;2022-11-20T08:48:02;100184.91;;;3.63;100.00
64521;BME280;50896;46.714;17.322;2022-11-20T08:50:29;100180.59;;;3.62;100.00
64521;BME280;50896;46.714;17.322;2022-11-20T08:53:04;100178.66;;;3.64;100.00
64521;BME280;50896;46.714;17.322;2022-11-20T08:55:31;100175.94;;;3.66;100.00
64521;BME280;50896;46.714;17.322;2022-11-20T08:58:03;100188.09;;;3.67;100.00
64521;BME280;50896;46.714;17.322;2022-11-20T09:00:30;100186.78;;;3.72;100.00
64521;BME280;50896;46.714;17.322;2022-11-20T09:02:56;100195.03;;;3.68;100.00
64521;BME280;50896;46.714;17.322;2022-11-20T09:05:25;100183.56;;;3.69;100.00
64521;BME280;50896;46.714;17.322;2022-11-20T09:07:51;100202.09;;;3.67;100.00
64521;BME280;50896;46.714;17.322;2022-11-20T09:10:18;100194.53;;;3.74;100.00
64521;BME280;50896;46.714;17.322;2022-11-20T09:12:50;100209.53;;;3.62;100.00
64521;BME280;50896;46.714;17.322;2022-11-20T09:15:19;100207.13;;;3.59;100.00
64521;BME280;50896;46.714;17.322;2022-11-20T09:17:59;100218.84;;;3.55;100.00
64521;BME280;50896;46.714;17.322;2022-11-20T09:20:27;100218.13;;;3.53;100.00
64521;BME280;50896;46.714;17.322;2022-11-20T09:22:57;100204.75;;;3.56;100.00
64521;BME280;50896;46.714;17.322;2022-11-20T09:25:24;100213.72;;;3.53;100.00
64521;BME280;50896;46.714;17.322;2022-11-20T09:27:58;100210.38;;;3.51;100.00
64521;BME280;50896;46.714;17.322;2022-11-20T09:30:26;100216.34;;;3.53;100.00
64521;BME280;50896;46.714;17.322;2022-11-20T09:32:53;100212.41;;;3.48;100.00
64521;BME280;50896;46.714;17.322;2022-11-20T09:35:20;100211.94;;;3.42;100.00
64521;BME280;50896;46.714;17.322;2022-11-20T09:37:47;100208.59;;;3.52;100.00
64521;BME280;50896;46.714;17.322;2022-11-20T09:40:25;100205.09;;;3.51;100.00
64521;BME280;50896;46.714;17.322;2022-11-20T09:48:20;100193.63;;;3.64;100.00
64521;BME280;50896;46.714;17.322;2022-11-20T09:50:56;100191.63;;;3.56;100.00
64521;BME280;50896;46.714;17.322;2022-11-20T09:53:35;100187.31;;;3.55;100.00
64521;BME280;50896;46.714;17.322;2022-11-20T09:56:09;100189.94;;;3.55;100.00
64521;BME280;50896;46.714;17.322;2022-11-20T09:58:42;100182.88;;;3.55;100.00
64521;BME280;50896;46.714;17.322;2022-11-20T10:01:31;100185.16;;;3.60;100.00
64521;BME280;50896;46.714;17.322;2022-11-20T10:04:19;100175.47;;;3.61;100.00
64521;BME280;50896;46.714;17.322;2022-11-20T10:07:05;100176.53;;;3.58;100.00
64521;BME280;50896;46.714;17.322;2022-11-20T10:09:55;100174.41;;;3.52;100.00
64521;BME280;50896;46.714;17.322;2022-11-20T10:12:52;100183.34;;;3.61;100.00
64521;BME280;50896;46.714;17.322;2022-11-20T10:15:45;100177.72;;;3.65;100.00
64521;BME280;50896;46.714;17.322;2022-11-20T10:24:06;100187.63;;;3.73;100.00
64521;BME280;50896;46.714;17.322;2022-11-20T10:29:35;100188.53;;;3.83;100.00
64521;BME280;50896;46.714;17.322;2022-11-20T10:32:09;100191.66;;;3.88;100.00
64521;BME280;50896;46.714;17.322;2022-11-20T10:35:22;100196.06;;;3.88;100.00
64521;BME280;50896;46.714;17.322;2022-11-20T10:37:42;100184.13;;;3.84;100.00
64521;BME280;50896;46.714;17.322;2022-11-20T10:43:19;100187.34;;;3.87;100.00
64521;BME280;50896;46.714;17.322;2022-11-20T10:45:57;100194.50;;;3.97;100.00
64521;BME280;50896;46.714;17.322;2022-11-20T10:48:27;100192.00;;;3.95;100.00
64521;BME280;50896;46.714;17.322;2022-11-20T10:51:02;100192.06;;;4.05;100.00
64521;BME280;50896;46.714;17.322;2022-11-20T10:53:45;100187.91;;;4.02;100.00
64521;BME280;50896;46.714;17.322;2022-11-20T10:56:20;100187.28;;;3.99;100.00
64521;BME280;50896;46.714;17.322;2022-11-20T11:01:20;100173.88;;;4.02;100.00
64521;BME280;50896;46.714;17.322;2022-11-20T11:03:51;100174.16;;;3.99;100.00
64521;BME280;50896;46.714;17.322;2022-11-20T11:09:26;100177.19;;;4.15;100.00
64521;BME280;50896;46.714;17.322;2022-11-20T11:11:50;100182.25;;;4.07;100.00
64521;BME280;50896;46.714;17.322;2022-11-20T11:14:17;100185.22;;;4.14;100.00
64521;BME280;50896;46.714;17.322;2022-11-20T11:16:50;100184.81;;;4.18;100.00
64521;BME280;50896;46.714;17.322;2022-11-20T11:19:17;100172.00;;;4.25;100.00
64521;BME280;50896;46.714;17.322;2022-11-20T11:21:50;100163.78;;;4.39;100.00
64521;BME280;50896;46.714;17.322;2022-11-20T11:24:29;100164.03;;;4.36;100.00
64521;BME280;50896;46.714;17.322;2022-11-20T11:27:14;100165.72;;;4.37;100.00
64521;BME280;50896;46.714;17.322;2022-11-20T11:29:45;100161.28;;;4.38;100.00
64521;BME280;50896;46.714;17.322;2022-11-20T11:32:18;100149.94;;;4.37;100.00
64521;BME280;50896;46.714;17.322;2022-11-20T11:35:07;100142.16;;;4.36;100.00
64521;BME280;50896;46.714;17.322;2022-11-20T11:37:45;100153.50;;;4.36;100.00
64521;BME280;50896;46.714;17.322;2022-11-20T11:40:14;100160.13;;;4.31;100.00
64521;BME280;50896;46.714;17.322;2022-11-20T11:42:58;100154.38;;;4.37;100.00
64521;BME280;50896;46.714;17.322;2022-11-20T11:45:26;100141.31;;;4.35;100.00
64521;BME280;50896;46.714;17.322;2022-11-20T11:47:55;100156.34;;;4.44;100.00
64521;BME280;50896;46.714;17.322;2022-11-20T11:50:25;100152.88;;;4.44;100.00
64521;BME280;50896;46.714;17.322;2022-11-20T12:02:11;100156.28;;;4.35;100.00
64521;BME280;50896;46.714;17.322;2022-11-20T12:04:24;100148.19;;;4.26;100.00
64521;BME280;50896;46.714;17.322;2022-11-20T12:07:02;100155.47;;;4.34;100.00
64521;BME280;50896;46.714;17.322;2022-11-20T12:09:52;100148.66;;;4.32;100.00
64521;BME280;50896;46.714;17.322;2022-11-20T12:12:35;100155.81;;;4.30;100.00
64521;BME280;50896;46.714;17.322;2022-11-20T12:15:04;100156.94;;;4.27;100.00
64521;BME280;50896;46.714;17.322;2022-11-20T12:17:31;100161.34;;;4.26;100.00
64521;BME280;50896;46.714;17.322;2022-11-20T12:19:57;100164.56;;;4.30;100.00
64521;BME280;50896;46.714;17.322;2022-11-20T12:22:52;100163.34;;;4.34;100.00
64521;BME280;50896;46.714;17.322;2022-11-20T12:25:32;100159.63;;;4.37;100.00
64521;BME280;50896;46.714;17.322;2022-11-20T12:29:02;100158.66;;;4.38;100.00
64521;BME280;50896;46.714;17.322;2022-11-20T12:31:37;100154.59;;;4.34;100.00
64521;BME280;50896;46.714;17.322;2022-11-20T12:34:40;100143.25;;;4.33;100.00
64521;BME280;50896;46.714;17.322;2022-11-20T12:39:55;100149.28;;;4.24;100.00
64521;BME280;50896;46.714;17.322;2022-11-20T12:42:42;100141.91;;;4.18;100.00
64521;BME280;50896;46.714;17.322;2022-11-20T12:48:35;100132.19;;;4.18;100.00
64521;BME280;50896;46.714;17.322;2022-11-20T13:07:20;100129.91;;;4.25;100.00
64521;BME280;50896;46.714;17.322;2022-11-20T13:09:49;100125.59;;;4.24;100.00
64521;BME280;50896;46.714;17.322;2022-11-20T13:15:00;100130.63;;;4.27;100.00
64521;BME280;50896;46.714;17.322;2022-11-20T13:20:14;100129.44;;;4.20;100.00
64521;BME280;50896;46.714;17.322;2022-11-20T13:25:21;100125.41;;;4.16;100.00
64521;BME280;50896;46.714;17.322;2022-11-20T13:27:48;100125.16;;;4.19;100.00
64521;BME280;50896;46.714;17.322;2022-11-20T13:30:21;100125.97;;;4.19;100.00
64521;BME280;50896;46.714;17.322;2022-11-20T13:32:54;100128.34;;;4.22;100.00
64521;BME280;50896;46.714;17.322;2022-11-20T13:35:31;100114.50;;;4.20;100.00
64521;BME280;50896;46.714;17.322;2022-11-20T13:38:10;100116.47;;;4.28;100.00
64521;BME280;50896;46.714;17.322;2022-11-20T13:40:56;100118.41;;;4.26;100.00
64521;BME280;50896;46.714;17.322;2022-11-20T13:43:35;100130.63;;;4.27;100.00
64521;BME280;50896;46.714;17.322;2022-11-20T13:46:08;100129.91;;;4.25;100.00
64521;BME280;50896;46.714;17.322;2022-11-20T13:48:43;100124.63;;;4.25;100.00
64521;BME280;50896;46.714;17.322;2022-11-20T14:01:53;100125.84;;;4.21;100.00
64521;BME280;50896;46.714;17.322;2022-11-20T14:04:27;100123.22;;;4.21;100.00
64521;BME280;50896;46.714;17.322;2022-11-20T14:06:55;100122.47;;;4.30;100.00
64521;BME280;50896;46.714;17.322;2022-11-20T14:09:31;100113.84;;;4.28;100.00
64521;BME280;50896;46.714;17.322;2022-11-20T14:11:58;100109.78;;;4.24;100.00
64521;BME280;50896;46.714;17.322;2022-11-20T14:14:26;100112.13;;;4.17;100.00
64521;BME280;50896;46.714;17.322;2022-11-20T14:17:06;100111.28;;;4.17;100.00